createdAt,value
2022-09-23T00:02:27.539Z,2.27
2022-09-23T00:12:29.817Z,2.67
2022-09-23T00:22:32.067Z,2.30
2022-09-23T00:32:35.145Z,2.20
2022-09-23T00:42:37.399Z,2.43
2022-09-23T00:52:39.929Z,2.00
2022-09-23T01:02:42.318Z,1.83
2022-09-23T01:13:05.660Z,2.03
2022-09-23T01:23:20.991Z,2.10
2022-09-23T01:33:46.798Z,2.28
2022-09-23T01:54:09.463Z,2.40
2022-09-23T02:04:30.792Z,1.70
2022-09-23T02:14:40.894Z,1.77
2022-09-23T02:24:43.271Z,2.60
2022-09-23T02:35:06.858Z,2.10
2022-09-23T02:45:09.353Z,2.40
2022-09-23T02:55:12.554Z,2.13
2022-09-23T03:05:30.439Z,2.03
2022-09-23T03:15:39.065Z,2.20
2022-09-23T03:25:46.071Z,2.67
2022-09-23T03:36:25.721Z,2.30
2022-09-23T03:46:30.486Z,2.00
2022-09-23T03:56:33.012Z,2.70
2022-09-23T04:06:35.896Z,2.40
2022-09-23T04:16:38.287Z,3.07
2022-09-23T04:26:41.616Z,2.33
2022-09-23T04:36:47.521Z,2.77
2022-09-23T04:46:50.412Z,2.70
2022-09-23T04:56:52.766Z,2.47
2022-09-23T05:06:56.624Z,2.67
2022-09-23T05:17:01.935Z,2.43
2022-09-23T05:27:07.431Z,2.77
2022-09-23T05:37:10.469Z,2.73
2022-09-23T05:47:13.320Z,2.70
2022-09-23T05:57:16.172Z,2.57
2022-09-23T06:07:18.650Z,2.60
2022-09-23T06:17:20.925Z,3.00
2022-09-23T06:27:23.334Z,2.77
2022-09-23T06:37:25.976Z,2.83
2022-09-23T06:47:29.772Z,2.70
2022-09-23T06:57:33.722Z,2.67
2022-09-23T07:07:40.160Z,2.50
2022-09-23T07:17:43.589Z,2.07
2022-09-23T07:27:48.094Z,2.53
2022-09-23T07:37:57.102Z,2.60
2022-09-23T07:48:00.493Z,3.23
2022-09-23T07:58:04.553Z,3.13
2022-09-23T08:08:08.407Z,2.87
2022-09-23T08:18:13.447Z,2.53
2022-09-23T08:28:20.408Z,2.70
2022-09-23T08:38:23.913Z,2.80
2022-09-23T08:48:35.028Z,2.40
2022-09-23T08:58:39.005Z,2.97
2022-09-23T09:08:44.952Z,3.45
2022-09-23T09:18:55.665Z,2.40
2022-09-23T09:29:31.136Z,2.30
2022-09-23T09:39:36.567Z,3.58
2022-09-23T09:49:50.034Z,2.28
2022-09-23T09:59:52.600Z,1.92
2022-09-23T10:09:58.333Z,1.80
2022-09-23T10:20:20.479Z,2.05
2022-09-23T10:30:26.315Z,2.08
2022-09-23T10:40:52.053Z,1.48
2022-09-23T10:50:56.161Z,1.52
2022-09-23T11:11:34.467Z,1.48
2022-09-23T11:22:16.310Z,1.70
2022-09-23T11:32:41.984Z,1.95
2022-09-23T11:43:03.835Z,1.75
2022-09-23T11:53:16.718Z,1.90
2022-09-23T12:03:40.156Z,2.00
2022-09-23T12:14:01.881Z,2.00
2022-09-23T12:24:23.090Z,2.08
2022-09-23T12:34:38.551Z,1.73
2022-09-23T12:44:44.516Z,1.55
2022-09-23T12:54:52.743Z,1.77
2022-09-23T13:05:35.282Z,2.05
2022-09-23T13:15:39.614Z,1.87
2022-09-23T13:25:44.225Z,1.80
2022-09-23T13:35:52.378Z,1.67
2022-09-23T13:45:56.230Z,1.70
2022-09-23T13:56:06.871Z,1.77
2022-09-23T14:06:14.753Z,2.03
2022-09-23T14:16:18.767Z,1.50
2022-09-23T14:26:23.612Z,1.50
2022-09-23T14:36:44.966Z,4.62
2022-09-23T14:46:59.206Z,6.65
2022-09-23T14:57:06.632Z,5.43
2022-09-23T15:07:21.442Z,3.08
2022-09-23T15:17:23.871Z,2.20
2022-09-23T15:27:29.280Z,1.77
2022-09-23T15:37:36.204Z,2.12
2022-09-23T15:47:38.961Z,1.98
2022-09-23T15:57:41.452Z,1.77
2022-09-23T16:07:43.925Z,2.03
2022-09-23T16:17:46.731Z,1.98
2022-09-23T16:27:50.461Z,1.60
2022-09-23T16:47:56.460Z,2.08
2022-09-23T16:57:59.285Z,1.63
2022-09-23T17:08:02.237Z,1.95
2022-09-23T17:18:06.693Z,3.70
2022-09-23T17:28:09.250Z,2.58
2022-09-23T17:38:11.696Z,1.85
2022-09-23T17:48:14.704Z,2.00
2022-09-23T17:58:17.567Z,2.08
2022-09-23T18:08:20.231Z,3.90
2022-09-23T18:18:22.863Z,3.47
2022-09-23T18:28:25.653Z,6.53
2022-09-23T18:38:28.446Z,7.80
2022-09-23T18:48:51.562Z,6.20
2022-09-23T18:58:55.711Z,4.85
2022-09-23T19:19:02.550Z,3.00
2022-09-23T19:29:06.333Z,3.50
2022-09-23T19:39:15.298Z,3.60
2022-09-23T19:49:18.972Z,4.68
2022-09-23T19:59:21.534Z,3.67
2022-09-23T20:09:24.047Z,3.58
2022-09-23T20:19:26.856Z,3.83
2022-09-23T20:29:29.242Z,3.20
2022-09-23T20:39:31.997Z,3.20
2022-09-23T20:49:34.934Z,3.50
2022-09-23T20:59:38.542Z,4.05
2022-09-23T21:09:41.066Z,3.70
2022-09-23T21:19:43.528Z,3.30
2022-09-23T21:29:45.943Z,3.55
2022-09-23T21:40:11.425Z,3.50
2022-09-23T21:50:14.055Z,3.95
2022-09-23T22:00:16.484Z,3.17
2022-09-23T22:10:18.900Z,3.35
2022-09-23T22:20:21.355Z,2.78
2022-09-23T22:30:42.384Z,3.15
2022-09-23T22:40:44.841Z,4.30
2022-09-23T22:50:48.087Z,3.50
2022-09-23T23:00:51.907Z,2.83
2022-09-23T23:10:55.499Z,3.63
2022-09-23T23:21:06.661Z,3.10
2022-09-23T23:31:11.868Z,2.75
2022-09-23T23:41:17.112Z,3.67
2022-09-23T23:51:19.389Z,3.62
